sensor_id;sensor_type;location;lat;lon;timestamp;pressure;altitude;pressure_sealevel;temperature;humidity
41078;BME280;26823;42.662;23.352;2023-07-31T00:02:06;94466.31;;;22.49;66.04
41078;BME280;26823;42.662;23.352;2023-07-31T00:04:31;94474.28;;;22.54;66.24
41078;BME280;26823;42.662;23.352;2023-07-31T00:06:57;94477.47;;;22.56;66.41
41078;BME280;26823;42.662;23.352;2023-07-31T00:09:22;94459.13;;;22.44;66.92
41078;BME280;26823;42.662;23.352;2023-07-31T00:11:47;94474.88;;;22.44;67.49
41078;BME280;26823;42.662;23.352;2023-07-31T00:14:13;94486.81;;;22.52;67.72
41078;BME280;26823;42.662;23.352;2023-07-31T00:16:38;94491.56;;;22.51;67.21
41078;BME280;26823;42.662;23.352;2023-07-31T00:19:03;94488.28;;;22.45;67.98
41078;BME280;26823;42.662;23.352;2023-07-31T00:21:29;94484.81;;;22.48;67.42
41078;BME280;26823;42.662;23.352;2023-07-31T00:23:54;94481.53;;;22.43;67.46
41078;BME280;26823;42.662;23.352;2023-07-31T00:26:19;94479.59;;;22.43;67.41
41078;BME280;26823;42.662;23.352;2023-07-31T00:28:45;94477.41;;;22.53;66.96
41078;BME280;26823;42.662;23.352;2023-07-31T00:31:10;94474.72;;;22.56;66.79
41078;BME280;26823;42.662;23.352;2023-07-31T00:33:35;94466.38;;;22.53;67.16
41078;BME280;26823;42.662;23.352;2023-07-31T00:36:02;94440.94;;;22.40;68.05
41078;BME280;26823;42.662;23.352;2023-07-31T00:38:27;94449.22;;;22.40;69.15
41078;BME280;26823;42.662;23.352;2023-07-31T00:40:53;94434.88;;;22.34;69.81
41078;BME280;26823;42.662;23.352;2023-07-31T00:43:25;94440.03;;;22.36;70.22
41078;BME280;26823;42.662;23.352;2023-07-31T00:45:51;94442.66;;;22.28;70.56
41078;BME280;26823;42.662;23.352;2023-07-31T00:48:16;94449.97;;;22.21;71.46
41078;BME280;26823;42.662;23.352;2023-07-31T00:50:41;94450.69;;;22.18;71.38
41078;BME280;26823;42.662;23.352;2023-07-31T00:53:07;94466.34;;;22.13;71.39
41078;BME280;26823;42.662;23.352;2023-07-31T00:55:32;94457.63;;;22.11;71.73
41078;BME280;26823;42.662;23.352;2023-07-31T00:57:58;94457.00;;;22.18;71.11
41078;BME280;26823;42.662;23.352;2023-07-31T01:00:23;94454.03;;;22.07;72.45
41078;BME280;26823;42.662;23.352;2023-07-31T01:02:50;94447.66;;;22.03;72.76
41078;BME280;26823;42.662;23.352;2023-07-31T01:05:17;94441.19;;;21.95;73.42
41078;BME280;26823;42.662;23.352;2023-07-31T01:10:20;94445.53;;;21.96;73.05
41078;BME280;26823;42.662;23.352;2023-07-31T01:12:47;94432.97;;;21.79;73.76
41078;BME280;26823;42.662;23.352;2023-07-31T01:15:13;94448.84;;;21.86;74.29
41078;BME280;26823;42.662;23.352;2023-07-31T01:17:41;94440.78;;;21.77;74.68
41078;BME280;26823;42.662;23.352;2023-07-31T01:20:23;94443.53;;;21.77;75.08
41078;BME280;26823;42.662;23.352;2023-07-31T01:26:21;94438.19;;;21.85;74.66
41078;BME280;26823;42.662;23.352;2023-07-31T01:31:26;94437.34;;;21.80;74.93
41078;BME280;26823;42.662;23.352;2023-07-31T01:33:53;94429.50;;;21.82;75.10
41078;BME280;26823;42.662;23.352;2023-07-31T01:36:20;94428.63;;;21.78;75.17
41078;BME280;26823;42.662;23.352;2023-07-31T01:38:45;94425.97;;;21.82;74.81
41078;BME280;26823;42.662;23.352;2023-07-31T01:41:10;94425.78;;;21.75;75.49
41078;BME280;26823;42.662;23.352;2023-07-31T01:43:36;94430.97;;;21.76;75.01
41078;BME280;26823;42.662;23.352;2023-07-31T01:46:01;94421.38;;;21.70;75.67
41078;BME280;26823;42.662;23.352;2023-07-31T01:48:26;94417.81;;;21.70;75.86
41078;BME280;26823;42.662;23.352;2023-07-31T01:50:52;94424.13;;;21.70;75.85
41078;BME280;26823;42.662;23.352;2023-07-31T01:53:17;94417.81;;;21.70;76.25
41078;BME280;26823;42.662;23.352;2023-07-31T01:55:43;94427.66;;;21.71;76.51
41078;BME280;26823;42.662;23.352;2023-07-31T01:58:09;94426.81;;;21.66;76.51
41078;BME280;26823;42.662;23.352;2023-07-31T02:00:34;94435.44;;;21.65;76.87
41078;BME280;26823;42.662;23.352;2023-07-31T02:02:59;94433.00;;;21.63;77.16
41078;BME280;26823;42.662;23.352;2023-07-31T02:05:25;94430.53;;;21.58;77.65
41078;BME280;26823;42.662;23.352;2023-07-31T02:07:50;94428.59;;;21.43;78.60
41078;BME280;26823;42.662;23.352;2023-07-31T02:10:16;94440.03;;;21.45;78.71
41078;BME280;26823;42.662;23.352;2023-07-31T02:12:41;94445.09;;;21.43;78.88
41078;BME280;26823;42.662;23.352;2023-07-31T02:15:07;94441.75;;;21.33;79.34
41078;BME280;26823;42.662;23.352;2023-07-31T02:17:32;94436.59;;;21.32;79.53
41078;BME280;26823;42.662;23.352;2023-07-31T02:19:58;94455.91;;;21.35;79.87
41078;BME280;26823;42.662;23.352;2023-07-31T02:22:23;94435.28;;;21.26;80.12
41078;BME280;26823;42.662;23.352;2023-07-31T02:24:48;94439.59;;;21.27;80.09
41078;BME280;26823;42.662;23.352;2023-07-31T02:27:14;94449.72;;;21.39;79.98
41078;BME280;26823;42.662;23.352;2023-07-31T02:29:39;94454.34;;;21.34;80.55
41078;BME280;26823;42.662;23.352;2023-07-31T02:32:05;94437.22;;;21.25;80.92
41078;BME280;26823;42.662;23.352;2023-07-31T02:34:30;94451.78;;;21.26;80.97
41078;BME280;26823;42.662;23.352;2023-07-31T02:36:55;94449.72;;;21.23;81.43
41078;BME280;26823;42.662;23.352;2023-07-31T02:39:21;94446.09;;;21.18;81.24
41078;BME280;26823;42.662;23.352;2023-07-31T02:41:47;94425.97;;;21.14;81.64
41078;BME280;26823;42.662;23.352;2023-07-31T02:44:12;94438.63;;;21.19;81.52
41078;BME280;26823;42.662;23.352;2023-07-31T02:46:39;94436.97;;;21.14;81.68
41078;BME280;26823;42.662;23.352;2023-07-31T02:49:05;94427.13;;;21.13;81.14
41078;BME280;26823;42.662;23.352;2023-07-31T02:51:30;94449.34;;;21.24;81.22
41078;BME280;26823;42.662;23.352;2023-07-31T02:53:56;94439.28;;;21.28;80.83
41078;BME280;26823;42.662;23.352;2023-07-31T02:56:21;94464.16;;;21.35;80.69
41078;BME280;26823;42.662;23.352;2023-07-31T02:58:46;94453.53;;;21.34;80.60
41078;BME280;26823;42.662;23.352;2023-07-31T03:01:12;94448.41;;;21.32;80.05
41078;BME280;26823;42.662;23.352;2023-07-31T03:03:37;94452.47;;;21.39;79.99
41078;BME280;26823;42.662;23.352;2023-07-31T03:06:03;94464.34;;;21.43;78.99
41078;BME280;26823;42.662;23.352;2023-07-31T03:08:28;94473.56;;;21.50;79.33
41078;BME280;26823;42.662;23.352;2023-07-31T03:10:53;94467.03;;;21.55;79.07
41078;BME280;26823;42.662;23.352;2023-07-31T03:13:19;94462.66;;;21.54;78.85
41078;BME280;26823;42.662;23.352;2023-07-31T03:15:44;94477.84;;;21.64;78.11
41078;BME280;26823;42.662;23.352;2023-07-31T03:18:09;94486.47;;;21.62;78.60
41078;BME280;26823;42.662;23.352;2023-07-31T03:20:35;94477.31;;;21.58;78.70
41078;BME280;26823;42.662;23.352;2023-07-31T03:23:00;94479.88;;;21.51;79.10
41078;BME280;26823;42.662;23.352;2023-07-31T03:25:26;94487.34;;;21.66;78.68
41078;BME280;26823;42.662;23.352;2023-07-31T03:27:51;94476.25;;;21.63;79.18
41078;BME280;26823;42.662;23.352;2023-07-31T03:30:16;94475.75;;;21.57;79.16
41078;BME280;26823;42.662;23.352;2023-07-31T03:32:42;94479.72;;;21.60;79.59
41078;BME280;26823;42.662;23.352;2023-07-31T03:35:07;94481.84;;;21.66;79.33
41078;BME280;26823;42.662;23.352;2023-07-31T03:37:33;94480.25;;;21.65;79.35
41078;BME280;26823;42.662;23.352;2023-07-31T03:39:58;94483.78;;;21.66;79.48
41078;BME280;26823;42.662;23.352;2023-07-31T03:42:30;94483.78;;;21.66;79.06
41078;BME280;26823;42.662;23.352;2023-07-31T03:44:55;94485.28;;;21.63;79.35
41078;BME280;26823;42.662;23.352;2023-07-31T03:47:21;94486.09;;;21.64;79.19
41078;BME280;26823;42.662;23.352;2023-07-31T03:49:46;94484.97;;;21.65;78.85
41078;BME280;26823;42.662;23.352;2023-07-31T03:52:11;94476.06;;;21.72;78.38
41078;BME280;26823;42.662;23.352;2023-07-31T03:54:37;94490.31;;;21.77;77.87
41078;BME280;26823;42.662;23.352;2023-07-31T03:57:02;94495.41;;;21.75;78.19
41078;BME280;26823;42.662;23.352;2023-07-31T03:59:28;94498.16;;;21.75;77.49
41078;BME280;26823;42.662;23.352;2023-07-31T04:01:53;94494.59;;;21.75;77.83
41078;BME280;26823;42.662;23.352;2023-07-31T04:04:18;94506.06;;;21.77;77.76
41078;BME280;26823;42.662;23.352;2023-07-31T04:06:44;94501.78;;;21.79;77.47
41078;BME280;26823;42.662;23.352;2023-07-31T04:09:09;94503.31;;;21.77;77.74
41078;BME280;26823;42.662;23.352;2023-07-31T04:11:35;94493.44;;;21.76;77.37
41078;BME280;26823;42.662;23.352;2023-07-31T04:14:00;94506.34;;;21.72;77.77
41078;BME280;26823;42.662;23.352;2023-07-31T04:16:25;94494.44;;;21.51;78.48
41078;BME280;26823;42.662;23.352;2023-07-31T04:18:51;94509.53;;;21.58;78.44
41078;BME280;26823;42.662;23.352;2023-07-31T04:21:16;94488.19;;;21.55;77.84
41078;BME280;26823;42.662;23.352;2023-07-31T04:23:42;94512.16;;;21.86;77.36
41078;BME280;26823;42.662;23.352;2023-07-31T04:26:08;94503.63;;;21.91;76.77
41078;BME280;26823;42.662;23.352;2023-07-31T04:28:33;94513.38;;;22.05;76.07
41078;BME280;26823;42.662;23.352;2023-07-31T04:30:58;94500.19;;;22.14;75.17
41078;BME280;26823;42.662;23.352;2023-07-31T04:33:24;94505.84;;;22.21;74.56
41078;BME280;26823;42.662;23.352;2023-07-31T04:35:53;94502.25;;;22.37;74.29
41078;BME280;26823;42.662;23.352;2023-07-31T04:38:20;94509.00;;;22.39;74.27
41078;BME280;26823;42.662;23.352;2023-07-31T04:40:46;94505.84;;;22.37;73.86
41078;BME280;26823;42.662;23.352;2023-07-31T04:43:12;94507.56;;;22.45;73.54
41078;BME280;26823;42.662;23.352;2023-07-31T04:45:37;94517.44;;;22.46;73.40
41078;BME280;26823;42.662;23.352;2023-07-31T04:48:03;94519.41;;;22.46;73.20
41078;BME280;26823;42.662;23.352;2023-07-31T04:50:28;94506.41;;;22.46;72.55
41078;BME280;26823;42.662;23.352;2023-07-31T04:52:55;94511.38;;;22.41;72.92
41078;BME280;26823;42.662;23.352;2023-07-31T04:55:21;94506.25;;;22.39;72.58
41078;BME280;26823;42.662;23.352;2023-07-31T04:57:46;94519.66;;;22.41;73.26
41078;BME280;26823;42.662;23.352;2023-07-31T05:00:11;94516.47;;;22.39;73.02
41078;BME280;26823;42.662;23.352;2023-07-31T05:02:37;94505.25;;;22.47;72.75
41078;BME280;26823;42.662;23.352;2023-07-31T05:05:02;94512.00;;;22.50;72.07
41078;BME280;26823;42.662;23.352;2023-07-31T05:07:28;94511.34;;;22.37;72.72
41078;BME280;26823;42.662;23.352;2023-07-31T05:09:53;94501.06;;;22.18;73.68
41078;BME280;26823;42.662;23.352;2023-07-31T05:12:18;94498.94;;;22.11;73.81
41078;BME280;26823;42.662;23.352;2023-07-31T05:14:44;94499.16;;;22.03;74.25
41078;BME280;26823;42.662;23.352;2023-07-31T05:17:09;94498.13;;;21.91;74.58
41078;BME280;26823;42.662;23.352;2023-07-31T05:19:35;94511.81;;;21.88;75.28
41078;BME280;26823;42.662;23.352;2023-07-31T05:22:00;94499.41;;;21.78;76.25
41078;BME280;26823;42.662;23.352;2023-07-31T05:24:25;94497.88;;;21.80;75.70
41078;BME280;26823;42.662;23.352;2023-07-31T05:26:51;94501.69;;;21.76;75.91
41078;BME280;26823;42.662;23.352;2023-07-31T05:29:16;94497.72;;;21.73;75.48
41078;BME280;26823;42.662;23.352;2023-07-31T05:31:41;94505.69;;;21.78;75.10
41078;BME280;26823;42.662;23.352;2023-07-31T05:34:07;94499.41;;;21.78;75.32
41078;BME280;26823;42.662;23.352;2023-07-31T05:36:32;94509.75;;;21.85;75.31
41078;BME280;26823;42.662;23.352;2023-07-31T05:38:57;94492.56;;;21.88;75.51
41078;BME280;26823;42.662;23.352;2023-07-31T05:41:23;94491.72;;;21.87;74.85
41078;BME280;26823;42.662;23.352;2023-07-31T05:43:48;94491.31;;;21.85;74.20
41078;BME280;26823;42.662;23.352;2023-07-31T05:46:14;94491.66;;;21.83;74.20
41078;BME280;26823;42.662;23.352;2023-07-31T05:48:39;94485.00;;;21.69;74.75
41078;BME280;26823;42.662;23.352;2023-07-31T05:51:04;94485.72;;;21.81;74.62
41078;BME280;26823;42.662;23.352;2023-07-31T05:53:30;94502.91;;;21.94;74.00
41078;BME280;26823;42.662;23.352;2023-07-31T05:55:55;94492.88;;;21.86;73.22
41078;BME280;26823;42.662;23.352;2023-07-31T05:58:21;94513.09;;;21.94;72.75
41078;BME280;26823;42.662;23.352;2023-07-31T06:00:46;94512.50;;;21.85;73.41
41078;BME280;26823;42.662;23.352;2023-07-31T06:03:12;94502.84;;;21.75;73.02
41078;BME280;26823;42.662;23.352;2023-07-31T06:05:37;94523.69;;;21.92;72.99
41078;BME280;26823;42.662;23.352;2023-07-31T06:08:03;94522.84;;;22.07;71.83
41078;BME280;26823;42.662;23.352;2023-07-31T06:10:28;94518.56;;;22.26;70.97
41078;BME280;26823;42.662;23.352;2023-07-31T06:12:54;94522.66;;;22.52;69.57
41078;BME280;26823;42.662;23.352;2023-07-31T06:15:19;94513.94;;;22.69;68.00
41078;BME280;26823;42.662;23.352;2023-07-31T06:17:45;94516.56;;;22.82;67.27
41078;BME280;26823;42.662;23.352;2023-07-31T06:20:11;94520.34;;;22.96;66.56
41078;BME280;26823;42.662;23.352;2023-07-31T06:22:36;94511.00;;;23.01;65.30
41078;BME280;26823;42.662;23.352;2023-07-31T06:25:01;94513.75;;;23.21;63.88
41078;BME280;26823;42.662;23.352;2023-07-31T06:27:28;94522.13;;;23.28;62.67
41078;BME280;26823;42.662;23.352;2023-07-31T06:29:53;94520.00;;;23.41;61.77
41078;BME280;26823;42.662;23.352;2023-07-31T06:32:19;94513.88;;;23.51;61.05
41078;BME280;26823;42.662;23.352;2023-07-31T06:34:44;94515.22;;;23.38;61.11
41078;BME280;26823;42.662;23.352;2023-07-31T06:37:09;94515.03;;;23.50;60.55
41078;BME280;26823;42.662;23.352;2023-07-31T06:39:35;94512.41;;;23.57;59.86
41078;BME280;26823;42.662;23.352;2023-07-31T06:42:00;94513.56;;;23.56;59.92
41078;BME280;26823;42.662;23.352;2023-07-31T06:44:25;94517.09;;;23.57;60.29
41078;BME280;26823;42.662;23.352;2023-07-31T06:46:51;94516.84;;;23.66;59.79
41078;BME280;26823;42.662;23.352;2023-07-31T06:49:16;94520.47;;;23.70;59.87
41078;BME280;26823;42.662;23.352;2023-07-31T06:51:42;94526.22;;;23.84;59.35
41078;BME280;26823;42.662;23.352;2023-07-31T06:54:08;94526.34;;;23.91;59.46
41078;BME280;26823;42.662;23.352;2023-07-31T06:56:33;94534.50;;;23.84;59.86
41078;BME280;26823;42.662;23.352;2023-07-31T06:58:59;94546.72;;;23.83;59.86
41078;BME280;26823;42.662;23.352;2023-07-31T07:01:24;94535.34;;;23.88;59.34
41078;BME280;26823;42.662;23.352;2023-07-31T07:03:49;94532.00;;;23.99;59.28
41078;BME280;26823;42.662;23.352;2023-07-31T07:06:19;94544.03;;;24.14;57.83
41078;BME280;26823;42.662;23.352;2023-07-31T07:08:44;94530.34;;;24.21;57.73
41078;BME280;26823;42.662;23.352;2023-07-31T07:11:10;94528.81;;;24.23;57.40
41078;BME280;26823;42.662;23.352;2023-07-31T07:13:35;94522.00;;;24.17;57.37
41078;BME280;26823;42.662;23.352;2023-07-31T07:16:00;94527.84;;;24.12;58.21
41078;BME280;26823;42.662;23.352;2023-07-31T07:18:26;94534.47;;;24.07;57.82
41078;BME280;26823;42.662;23.352;2023-07-31T07:20:52;94522.34;;;23.89;58.29
41078;BME280;26823;42.662;23.352;2023-07-31T07:23:18;94525.34;;;23.80;58.75
41078;BME280;26823;42.662;23.352;2023-07-31T07:25:45;94528.56;;;23.82;58.64
41078;BME280;26823;42.662;23.352;2023-07-31T07:28:11;94524.75;;;23.90;58.01
41078;BME280;26823;42.662;23.352;2023-07-31T07:30:36;94530.31;;;23.94;58.01
41078;BME280;26823;42.662;23.352;2023-07-31T07:33:02;94517.06;;;24.03;57.67
41078;BME280;26823;42.662;23.352;2023-07-31T07:35:27;94519.41;;;24.01;57.10
41078;BME280;26823;42.662;23.352;2023-07-31T07:37:53;94524.19;;;24.04;57.77
41078;BME280;26823;42.662;23.352;2023-07-31T07:40:19;94516.81;;;24.12;57.58
41078;BME280;26823;42.662;23.352;2023-07-31T07:42:44;94533.94;;;24.25;56.86
41078;BME280;26823;42.662;23.352;2023-07-31T07:45:09;94529.31;;;24.33;56.01
41078;BME280;26823;42.662;23.352;2023-07-31T07:47:35;94527.91;;;24.46;55.92
41078;BME280;26823;42.662;23.352;2023-07-31T07:50:00;94529.09;;;24.45;55.50
41078;BME280;26823;42.662;23.352;2023-07-31T07:52:26;94530.38;;;24.55;55.12
41078;BME280;26823;42.662;23.352;2023-07-31T07:54:51;94524.91;;;24.58;55.42
41078;BME280;26823;42.662;23.352;2023-07-31T07:57:16;94540.44;;;24.67;54.61
41078;BME280;26823;42.662;23.352;2023-07-31T07:59:42;94535.75;;;24.71;55.39
41078;BME280;26823;42.662;23.352;2023-07-31T08:02:07;94536.13;;;24.69;55.00
41078;BME280;26823;42.662;23.352;2023-07-31T08:04:33;94547.31;;;24.80;54.48
41078;BME280;26823;42.662;23.352;2023-07-31T08:06:58;94521.19;;;24.74;53.29
41078;BME280;26823;42.662;23.352;2023-07-31T08:09:23;94536.00;;;24.92;51.64
41078;BME280;26823;42.662;23.352;2023-07-31T08:11:49;94543.97;;;24.98;51.47
41078;BME280;26823;42.662;23.352;2023-07-31T08:14:14;94531.72;;;24.99;51.72
41078;BME280;26823;42.662;23.352;2023-07-31T08:16:40;94543.28;;;25.08;51.82
41078;BME280;26823;42.662;23.352;2023-07-31T08:19:05;94508.63;;;24.84;51.46
41078;BME280;26823;42.662;23.352;2023-07-31T08:21:31;94536.53;;;25.05;51.35
41078;BME280;26823;42.662;23.352;2023-07-31T08:23:56;94541.63;;;25.00;52.09
41078;BME280;26823;42.662;23.352;2023-07-31T08:26:22;94545.25;;;25.07;52.35
41078;BME280;26823;42.662;23.352;2023-07-31T08:28:47;94518.22;;;24.94;52.32
41078;BME280;26823;42.662;23.352;2023-07-31T08:31:13;94537.00;;;25.11;51.92
41078;BME280;26823;42.662;23.352;2023-07-31T08:33:39;94542.16;;;25.13;51.70
41078;BME280;26823;42.662;23.352;2023-07-31T08:36:05;94536.34;;;25.25;50.93
41078;BME280;26823;42.662;23.352;2023-07-31T08:38:30;94530.44;;;25.27;50.45
41078;BME280;26823;42.662;23.352;2023-07-31T08:40:59;94532.53;;;25.37;51.18
41078;BME280;26823;42.662;23.352;2023-07-31T08:43:28;94533.00;;;25.43;52.58
41078;BME280;26823;42.662;23.352;2023-07-31T08:45:53;94530.56;;;25.37;50.69
41078;BME280;26823;42.662;23.352;2023-07-31T08:48:21;94538.16;;;25.44;50.36
41078;BME280;26823;42.662;23.352;2023-07-31T08:50:47;94523.97;;;25.49;52.46
41078;BME280;26823;42.662;23.352;2023-07-31T08:53:13;94528.84;;;25.67;52.26
41078;BME280;26823;42.662;23.352;2023-07-31T08:55:38;94524.56;;;25.73;50.29
41078;BME280;26823;42.662;23.352;2023-07-31T08:58:04;94523.78;;;25.76;50.16
41078;BME280;26823;42.662;23.352;2023-07-31T09:00:31;94534.78;;;25.65;49.70
41078;BME280;26823;42.662;23.352;2023-07-31T09:02:59;94536.28;;;25.55;50.07
41078;BME280;26823;42.662;23.352;2023-07-31T09:05:26;94536.66;;;25.54;49.55
41078;BME280;26823;42.662;23.352;2023-07-31T09:07:51;94535.03;;;25.49;49.59
41078;BME280;26823;42.662;23.352;2023-07-31T09:10:17;94534.25;;;25.52;49.94
41078;BME280;26823;42.662;23.352;2023-07-31T09:12:42;94531.97;;;25.62;48.87
41078;BME280;26823;42.662;23.352;2023-07-31T09:15:08;94520.53;;;25.67;48.32
41078;BME280;26823;42.662;23.352;2023-07-31T09:17:35;94515.88;;;25.78;48.29
41078;BME280;26823;42.662;23.352;2023-07-31T09:22:39;94504.91;;;25.93;47.18
41078;BME280;26823;42.662;23.352;2023-07-31T09:25:22;94510.59;;;26.07;46.61
41078;BME280;26823;42.662;23.352;2023-07-31T09:30:14;94507.47;;;26.16;45.59
41078;BME280;26823;42.662;23.352;2023-07-31T09:32:40;94509.09;;;26.24;45.55
41078;BME280;26823;42.662;23.352;2023-07-31T09:35:21;94509.16;;;26.38;45.60
41078;BME280;26823;42.662;23.352;2023-07-31T09:37:55;94498.09;;;26.42;45.84
41078;BME280;26823;42.662;23.352;2023-07-31T09:49:33;94501.31;;;26.48;44.84
41078;BME280;26823;42.662;23.352;2023-07-31T09:53:03;94501.22;;;26.33;45.36
41078;BME280;26823;42.662;23.352;2023-07-31T09:55:52;94497.22;;;26.24;45.85
41078;BME280;26823;42.662;23.352;2023-07-31T09:58:17;94481.69;;;26.12;46.06
41078;BME280;26823;42.662;23.352;2023-07-31T10:01:10;94439.53;;;25.77;46.15
41078;BME280;26823;42.662;23.352;2023-07-31T10:06:51;94447.53;;;25.93;45.55
41078;BME280;26823;42.662;23.352;2023-07-31T10:09:19;94471.00;;;26.10;45.12
41078;BME280;26823;42.662;23.352;2023-07-31T10:11:48;94484.50;;;26.15;45.47
41078;BME280;26823;42.662;23.352;2023-07-31T10:14:23;94483.31;;;26.16;45.05
41078;BME280;26823;42.662;23.352;2023-07-31T10:16:49;94486.13;;;26.20;45.63
41078;BME280;26823;42.662;23.352;2023-07-31T10:19:16;94480.53;;;26.13;45.24
41078;BME280;26823;42.662;23.352;2023-07-31T10:21:42;94478.13;;;26.08;45.26
41078;BME280;26823;42.662;23.352;2023-07-31T10:24:08;94486.91;;;26.20;45.22
41078;BME280;26823;42.662;23.352;2023-07-31T10:26:35;94491.69;;;26.31;44.63
41078;BME280;26823;42.662;23.352;2023-07-31T10:29:03;94479.81;;;26.27;44.41
41078;BME280;26823;42.662;23.352;2023-07-31T10:31:30;94472.25;;;26.20;44.10
41078;BME280;26823;42.662;23.352;2023-07-31T10:33:57;94482.59;;;26.27;44.84
41078;BME280;26823;42.662;23.352;2023-07-31T10:36:24;94460.81;;;26.25;44.64
41078;BME280;26823;42.662;23.352;2023-07-31T10:38:50;94473.53;;;26.41;44.24
41078;BME280;26823;42.662;23.352;2023-07-31T10:41:16;94472.03;;;26.54;43.72
41078;BME280;26823;42.662;23.352;2023-07-31T10:43:42;94471.66;;;26.63;43.15
41078;BME280;26823;42.662;23.352;2023-07-31T10:46:08;94470.50;;;26.71;42.49
41078;BME280;26823;42.662;23.352;2023-07-31T10:48:35;94465.75;;;26.72;42.39
41078;BME280;26823;42.662;23.352;2023-07-31T10:51:09;94460.69;;;26.88;42.09
41078;BME280;26823;42.662;23.352;2023-07-31T10:53:36;94453.19;;;27.10;41.48
41078;BME280;26823;42.662;23.352;2023-07-31T10:56:03;94454.38;;;27.20;40.52
41078;BME280;26823;42.662;23.352;2023-07-31T10:58:29;94455.16;;;27.17;41.05
41078;BME280;26823;42.662;23.352;2023-07-31T11:00:58;94445.25;;;27.05;41.24
41078;BME280;26823;42.662;23.352;2023-07-31T11:03:43;94444.09;;;27.13;40.91
41078;BME280;26823;42.662;23.352;2023-07-31T11:06:09;94446.84;;;27.06;40.62
41078;BME280;26823;42.662;23.352;2023-07-31T11:08:41;94442.06;;;26.99;41.61
41078;BME280;26823;42.662;23.352;2023-07-31T11:11:09;94444.81;;;26.92;40.85
41078;BME280;26823;42.662;23.352;2023-07-31T11:13:45;94415.47;;;26.84;40.70
41078;BME280;26823;42.662;23.352;2023-07-31T11:16:12;94441.28;;;27.02;41.09
41078;BME280;26823;42.662;23.352;2023-07-31T11:18:42;94445.25;;;27.12;40.30
41078;BME280;26823;42.662;23.352;2023-07-31T11:21:11;94440.88;;;27.08;40.71
41078;BME280;26823;42.662;23.352;2023-07-31T11:23:37;94444.47;;;27.23;40.10
41078;BME280;26823;42.662;23.352;2023-07-31T11:26:04;94454.78;;;27.33;39.07
41078;BME280;26823;42.662;23.352;2023-07-31T11:28:34;94431.75;;;27.11;39.59
41078;BME280;26823;42.662;23.352;2023-07-31T11:31:01;94449.59;;;27.06;39.13
41078;BME280;26823;42.662;23.352;2023-07-31T11:33:27;94440.47;;;26.91;39.38
41078;BME280;26823;42.662;23.352;2023-07-31T11:35:52;94449.56;;;26.81;39.84
41078;BME280;26823;42.662;23.352;2023-07-31T11:38:29;94437.28;;;26.93;39.70
41078;BME280;26823;42.662;23.352;2023-07-31T11:40:59;94436.13;;;26.97;39.48
41078;BME280;26823;42.662;23.352;2023-07-31T11:43:32;94434.09;;;26.76;39.35
41078;BME280;26823;42.662;23.352;2023-07-31T11:45:58;94436.03;;;26.72;39.73
41078;BME280;26823;42.662;23.352;2023-07-31T11:48:30;94426.13;;;26.71;40.01
41078;BME280;26823;42.662;23.352;2023-07-31T11:51:02;94434.47;;;26.75;39.79
41078;BME280;26823;42.662;23.352;2023-07-31T11:53:52;94426.94;;;26.72;40.53
41078;BME280;26823;42.662;23.352;2023-07-31T11:56:18;94438.84;;;26.76;40.45
41078;BME280;26823;42.662;23.352;2023-07-31T11:58:53;94430.94;;;26.74;41.15
41078;BME280;26823;42.662;23.352;2023-07-31T12:01:19;94437.69;;;26.88;40.68
41078;BME280;26823;42.662;23.352;2023-07-31T12:03:46;94434.13;;;27.01;40.35
41078;BME280;26823;42.662;23.352;2023-07-31T12:06:12;94427.41;;;27.06;40.49
41078;BME280;26823;42.662;23.352;2023-07-31T12:08:37;94431.41;;;27.16;40.09
41078;BME280;26823;42.662;23.352;2023-07-31T12:11:05;94422.66;;;27.25;39.83
41078;BME280;26823;42.662;23.352;2023-07-31T12:13:32;94418.31;;;27.34;39.12
41078;BME280;26823;42.662;23.352;2023-07-31T12:15:59;94415.56;;;27.45;39.41
41078;BME280;26823;42.662;23.352;2023-07-31T12:18:27;94423.47;;;27.43;40.17
41078;BME280;26823;42.662;23.352;2023-07-31T12:21:00;94411.59;;;27.39;41.40
41078;BME280;26823;42.662;23.352;2023-07-31T12:23:30;94412.34;;;27.22;41.68
41078;BME280;26823;42.662;23.352;2023-07-31T12:26:10;94414.75;;;27.30;40.24
41078;BME280;26823;42.662;23.352;2023-07-31T12:31:14;94404.47;;;27.45;41.40
41078;BME280;26823;42.662;23.352;2023-07-31T12:33:42;94406.81;;;27.43;42.07
41078;BME280;26823;42.662;23.352;2023-07-31T12:36:10;94409.97;;;27.16;41.82
41078;BME280;26823;42.662;23.352;2023-07-31T12:38:35;94413.53;;;27.17;42.33
41078;BME280;26823;42.662;23.352;2023-07-31T12:41:01;94406.78;;;27.11;41.72
41078;BME280;26823;42.662;23.352;2023-07-31T12:43:26;94408.78;;;27.14;42.28
41078;BME280;26823;42.662;23.352;2023-07-31T12:45:54;94405.63;;;27.23;41.35
41078;BME280;26823;42.662;23.352;2023-07-31T12:48:19;94413.16;;;27.11;41.63
41078;BME280;26823;42.662;23.352;2023-07-31T12:50:44;94409.19;;;27.16;41.47
41078;BME280;26823;42.662;23.352;2023-07-31T12:53:10;94400.84;;;27.09;39.35
41078;BME280;26823;42.662;23.352;2023-07-31T12:55:35;94388.56;;;26.88;40.50
41078;BME280;26823;42.662;23.352;2023-07-31T12:58:02;94405.97;;;26.89;41.03
41078;BME280;26823;42.662;23.352;2023-07-31T13:00:28;94397.66;;;26.89;40.71
41078;BME280;26823;42.662;23.352;2023-07-31T13:02:53;94375.84;;;26.98;40.38
41078;BME280;26823;42.662;23.352;2023-07-31T13:05:18;94377.06;;;27.04;40.45
41078;BME280;26823;42.662;23.352;2023-07-31T13:07:45;94382.63;;;27.15;40.46
41078;BME280;26823;42.662;23.352;2023-07-31T13:10:11;94368.34;;;27.06;40.79
41078;BME280;26823;42.662;23.352;2023-07-31T13:12:36;94369.16;;;27.13;40.59
41078;BME280;26823;42.662;23.352;2023-07-31T13:15:03;94371.13;;;27.13;40.15
41078;BME280;26823;42.662;23.352;2023-07-31T13:17:28;94371.53;;;27.11;40.41